Terminal Aerodrome Forecast
Issued by NWS

Home | Current Version | Previous Version | Text Only | Print | Product List | Glossary On
Versions: 1 2 3 4 5 6 7 8 9 10 11 12
000
FTUS43 KBIS 231100 RRA
TAFMOT
TAF
KMOT 231141Z 2312/2412 26020G30KT P6SM -SN BKN025 OVC035
     FM231500 31026G35KT 5SM -SN BLSN OVC015
     FM240100 31018KT P6SM OVC025
     FM240700 31012KT P6SM SCT025 SCT080=

USA.gov is the U.S. government's official web portal to all federal, state and local government web resources and services.